Mendon - 24 Hour Table
Date & TimeSolar
Radiation
(W/m²)
Wind
Speed
(mph)
Wind
Direction
(degrees)
Air
Temperature
(°F)
Relative
Humidity
(%)
Precipitation
(inches)
2023/02/04 20:00 1 0.0 324 17.7 87 0.00
2023/02/04 19:00 1 0.0 320 18.4 87 0.00
2023/02/04 18:00 13 0.0 216 19.9 83 0.00
2023/02/04 17:00 37 0.0 174 22.7 77 0.00
2023/02/04 16:00 102 0.0 145 25.8 73 0.00
2023/02/04 15:00 241 0.0 141 26.4 69 0.01
2023/02/04 14:00 430 0.0 154 25.8 64 0.03
2023/02/04 13:00 593 0.3 158 24.0 67 0.00
2023/02/04 12:00 563 0.0 142 22.8 64 0.00
2023/02/04 11:00 450 0.2 151 16.9 74 0.00
2023/02/04 10:00 268 0.0 139 13.6 80 0.00
2023/02/04 09:00 74 0.0 322 9.7 89 0.00
2023/02/04 08:00 6 0.0 261 7.8 90 0.00
2023/02/04 07:00 0 0.0 273 9.2 90 0.00
2023/02/04 06:00 1 0.0 284 11.2 89 0.00
2023/02/04 05:00 1 0.0 295 12.0 92 0.00
2023/02/04 04:00 1 0.0 253 14.0 89 0.00
2023/02/04 03:00 1 0.0 312 14.3 90 0.00
2023/02/04 02:00 1 0.0 172 13.2 88 0.00
2023/02/04 01:00 1 0.0 298 12.1 87 0.00
2023/02/04 00:00 1 0.0 280 10.8 90 0.00
2023/02/03 23:00 1 0.0 281 12.6 86 0.00
2023/02/03 22:00 1 0.0 253 14.3 85 0.00
2023/02/03 21:00 1 0.4 190 15.4 86 0.00